sensor_id;sensor_type;location;lat;lon;timestamp;P1;durP1;ratioP1;P2;durP2;ratioP2
50086;SDS011;35967;50.718;7.050;2023-09-18T00:07:37;8.75;;;3.40;;
50086;SDS011;35967;50.718;7.050;2023-09-18T00:17:40;11.95;;;3.58;;
50086;SDS011;35967;50.718;7.050;2023-09-18T00:27:45;9.55;;;3.40;;
50086;SDS011;35967;50.718;7.050;2023-09-18T00:37:48;8.18;;;4.15;;
50086;SDS011;35967;50.718;7.050;2023-09-18T00:47:52;7.57;;;3.47;;
50086;SDS011;35967;50.718;7.050;2023-09-18T00:57:56;11.32;;;2.65;;
50086;SDS011;35967;50.718;7.050;2023-09-18T01:08:01;13.57;;;2.75;;
50086;SDS011;35967;50.718;7.050;2023-09-18T01:18:04;11.10;;;2.63;;
50086;SDS011;35967;50.718;7.050;2023-09-18T01:28:09;10.90;;;2.40;;
50086;SDS011;35967;50.718;7.050;2023-09-18T01:38:12;11.02;;;2.83;;
50086;SDS011;35967;50.718;7.050;2023-09-18T01:48:16;8.98;;;2.55;;
50086;SDS011;35967;50.718;7.050;2023-09-18T01:58:20;5.18;;;2.08;;
50086;SDS011;35967;50.718;7.050;2023-09-18T02:08:25;10.60;;;2.63;;
50086;SDS011;35967;50.718;7.050;2023-09-18T02:18:29;11.48;;;2.50;;
50086;SDS011;35967;50.718;7.050;2023-09-18T02:28:52;16.42;;;3.33;;
50086;SDS011;35967;50.718;7.050;2023-09-18T02:38:56;13.32;;;3.67;;
50086;SDS011;35967;50.718;7.050;2023-09-18T02:49:00;11.32;;;2.90;;
50086;SDS011;35967;50.718;7.050;2023-09-18T02:59:04;16.60;;;3.67;;
50086;SDS011;35967;50.718;7.050;2023-09-18T03:09:08;12.98;;;3.28;;
50086;SDS011;35967;50.718;7.050;2023-09-18T03:19:13;10.93;;;2.83;;
50086;SDS011;35967;50.718;7.050;2023-09-18T03:29:18;12.20;;;2.55;;
50086;SDS011;35967;50.718;7.050;2023-09-18T03:39:21;11.13;;;2.38;;
50086;SDS011;35967;50.718;7.050;2023-09-18T03:49:27;11.40;;;2.83;;
50086;SDS011;35967;50.718;7.050;2023-09-18T03:59:30;18.38;;;3.90;;
50086;SDS011;35967;50.718;7.050;2023-09-18T04:09:36;15.55;;;3.65;;
50086;SDS011;35967;50.718;7.050;2023-09-18T04:19:41;12.63;;;3.30;;
50086;SDS011;35967;50.718;7.050;2023-09-18T04:29:46;10.75;;;3.00;;
50086;SDS011;35967;50.718;7.050;2023-09-18T04:39:50;9.98;;;3.25;;
50086;SDS011;35967;50.718;7.050;2023-09-18T04:49:54;9.50;;;2.65;;
50086;SDS011;35967;50.718;7.050;2023-09-18T04:59:57;16.60;;;2.85;;
50086;SDS011;35967;50.718;7.050;2023-09-18T05:10:20;11.45;;;2.95;;
50086;SDS011;35967;50.718;7.050;2023-09-18T05:20:23;11.40;;;2.17;;
50086;SDS011;35967;50.718;7.050;2023-09-18T05:30:28;13.40;;;3.05;;
50086;SDS011;35967;50.718;7.050;2023-09-18T05:40:32;5.13;;;1.60;;
50086;SDS011;35967;50.718;7.050;2023-09-18T05:50:37;11.15;;;2.05;;
50086;SDS011;35967;50.718;7.050;2023-09-18T06:00:42;11.38;;;1.63;;
50086;SDS011;35967;50.718;7.050;2023-09-18T06:10:47;8.60;;;1.20;;
50086;SDS011;35967;50.718;7.050;2023-09-18T06:20:49;6.35;;;1.10;;
50086;SDS011;35967;50.718;7.050;2023-09-18T06:30:55;11.15;;;1.23;;
50086;SDS011;35967;50.718;7.050;2023-09-18T06:40:58;8.15;;;0.85;;
50086;SDS011;35967;50.718;7.050;2023-09-18T06:51:03;5.40;;;1.20;;
50086;SDS011;35967;50.718;7.050;2023-09-18T07:01:08;3.63;;;0.80;;
50086;SDS011;35967;50.718;7.050;2023-09-18T07:11:13;8.25;;;0.90;;
50086;SDS011;35967;50.718;7.050;2023-09-18T07:21:16;3.97;;;0.73;;
50086;SDS011;35967;50.718;7.050;2023-09-18T07:31:21;3.92;;;0.80;;
50086;SDS011;35967;50.718;7.050;2023-09-18T07:41:24;5.95;;;0.82;;
50086;SDS011;35967;50.718;7.050;2023-09-18T07:51:28;5.32;;;0.70;;
50086;SDS011;35967;50.718;7.050;2023-09-18T08:01:31;2.58;;;0.60;;
50086;SDS011;35967;50.718;7.050;2023-09-18T08:11:37;3.67;;;0.73;;
50086;SDS011;35967;50.718;7.050;2023-09-18T08:21:43;7.15;;;0.82;;
50086;SDS011;35967;50.718;7.050;2023-09-18T08:31:49;3.35;;;0.80;;
50086;SDS011;35967;50.718;7.050;2023-09-18T08:41:53;6.60;;;1.00;;
50086;SDS011;35967;50.718;7.050;2023-09-18T08:52:02;5.05;;;0.60;;
50086;SDS011;35967;50.718;7.050;2023-09-18T09:02:06;5.47;;;0.80;;
50086;SDS011;35967;50.718;7.050;2023-09-18T09:12:15;8.57;;;1.77;;
50086;SDS011;35967;50.718;7.050;2023-09-18T09:22:22;5.47;;;1.70;;
50086;SDS011;35967;50.718;7.050;2023-09-18T09:32:29;3.95;;;0.68;;
50086;SDS011;35967;50.718;7.050;2023-09-18T09:42:38;4.38;;;0.70;;
50086;SDS011;35967;50.718;7.050;2023-09-18T09:52:46;2.28;;;0.60;;
50086;SDS011;35967;50.718;7.050;2023-09-18T10:02:53;6.47;;;1.08;;
50086;SDS011;35967;50.718;7.050;2023-09-18T10:13:04;3.90;;;0.77;;
50086;SDS011;35967;50.718;7.050;2023-09-18T10:23:22;3.17;;;0.50;;
50086;SDS011;35967;50.718;7.050;2023-09-18T10:33:38;2.78;;;0.68;;
50086;SDS011;35967;50.718;7.050;2023-09-18T10:43:42;5.22;;;0.45;;
50086;SDS011;35967;50.718;7.050;2023-09-18T10:53:48;1.10;;;0.35;;
50086;SDS011;35967;50.718;7.050;2023-09-18T11:03:51;2.77;;;0.53;;
50086;SDS011;35967;50.718;7.050;2023-09-18T11:13:56;2.30;;;0.40;;
50086;SDS011;35967;50.718;7.050;2023-09-18T11:24:00;5.88;;;0.60;;
50086;SDS011;35967;50.718;7.050;2023-09-18T11:34:12;5.28;;;0.70;;
50086;SDS011;35967;50.718;7.050;2023-09-18T11:44:31;3.13;;;0.75;;
50086;SDS011;35967;50.718;7.050;2023-09-18T11:54:40;5.03;;;0.68;;
50086;SDS011;35967;50.718;7.050;2023-09-18T12:04:44;4.40;;;0.50;;
50086;SDS011;35967;50.718;7.050;2023-09-18T12:14:49;5.00;;;0.43;;
50086;SDS011;35967;50.718;7.050;2023-09-18T12:25:07;1.42;;;0.43;;
50086;SDS011;35967;50.718;7.050;2023-09-18T12:35:18;1.70;;;0.50;;
50086;SDS011;35967;50.718;7.050;2023-09-18T12:45:21;2.90;;;0.57;;
50086;SDS011;35967;50.718;7.050;2023-09-18T12:55:26;2.03;;;0.50;;
50086;SDS011;35967;50.718;7.050;2023-09-18T13:15:36;5.87;;;0.67;;
50086;SDS011;35967;50.718;7.050;2023-09-18T13:25:40;3.25;;;0.50;;
50086;SDS011;35967;50.718;7.050;2023-09-18T13:35:47;5.70;;;0.70;;
50086;SDS011;35967;50.718;7.050;2023-09-18T13:55:56;5.70;;;1.00;;
50086;SDS011;35967;50.718;7.050;2023-09-18T14:06:02;2.28;;;0.60;;
50086;SDS011;35967;50.718;7.050;2023-09-18T14:16:08;1.48;;;0.50;;
50086;SDS011;35967;50.718;7.050;2023-09-18T14:36:22;1.45;;;0.50;;
50086;SDS011;35967;50.718;7.050;2023-09-18T14:46:25;4.10;;;0.80;;
50086;SDS011;35967;50.718;7.050;2023-09-18T14:56:30;1.92;;;0.60;;
50086;SDS011;35967;50.718;7.050;2023-09-18T15:16:38;1.00;;;0.50;;
50086;SDS011;35967;50.718;7.050;2023-09-18T15:26:42;4.30;;;0.60;;
50086;SDS011;35967;50.718;7.050;2023-09-18T15:36:46;3.47;;;0.80;;
50086;SDS011;35967;50.718;7.050;2023-09-18T15:56:55;3.25;;;0.77;;
50086;SDS011;35967;50.718;7.050;2023-09-18T16:06:58;1.95;;;0.73;;
50086;SDS011;35967;50.718;7.050;2023-09-18T16:17:02;2.40;;;0.50;;
50086;SDS011;35967;50.718;7.050;2023-09-18T16:27:06;4.73;;;0.70;;
50086;SDS011;35967;50.718;7.050;2023-09-18T16:37:10;2.70;;;0.65;;
50086;SDS011;35967;50.718;7.050;2023-09-18T16:47:14;3.13;;;0.80;;
50086;SDS011;35967;50.718;7.050;2023-09-18T16:57:19;2.30;;;0.90;;
50086;SDS011;35967;50.718;7.050;2023-09-18T17:07:22;1.58;;;0.60;;
50086;SDS011;35967;50.718;7.050;2023-09-18T17:17:27;2.90;;;1.05;;
50086;SDS011;35967;50.718;7.050;2023-09-18T17:27:33;2.47;;;0.80;;
50086;SDS011;35967;50.718;7.050;2023-09-18T17:37:37;5.35;;;1.70;;
50086;SDS011;35967;50.718;7.050;2023-09-18T17:47:40;7.43;;;1.15;;
50086;SDS011;35967;50.718;7.050;2023-09-18T17:57:44;4.50;;;1.00;;
50086;SDS011;35967;50.718;7.050;2023-09-18T18:07:48;2.17;;;0.70;;
50086;SDS011;35967;50.718;7.050;2023-09-18T18:17:52;4.68;;;1.17;;
50086;SDS011;35967;50.718;7.050;2023-09-18T18:27:56;34.08;;;1.60;;
50086;SDS011;35967;50.718;7.050;2023-09-18T18:38:01;6.07;;;0.70;;
50086;SDS011;35967;50.718;7.050;2023-09-18T18:48:06;3.47;;;0.60;;
50086;SDS011;35967;50.718;7.050;2023-09-18T18:58:11;2.10;;;0.70;;
50086;SDS011;35967;50.718;7.050;2023-09-18T19:08:15;4.27;;;0.60;;
50086;SDS011;35967;50.718;7.050;2023-09-18T19:18:20;5.60;;;0.80;;
50086;SDS011;35967;50.718;7.050;2023-09-18T19:28:23;3.70;;;0.80;;
50086;SDS011;35967;50.718;7.050;2023-09-18T19:38:29;3.23;;;1.00;;
50086;SDS011;35967;50.718;7.050;2023-09-18T19:48:32;4.00;;;0.87;;
50086;SDS011;35967;50.718;7.050;2023-09-18T19:58:38;4.57;;;0.73;;
50086;SDS011;35967;50.718;7.050;2023-09-18T20:08:41;1.60;;;0.60;;
50086;SDS011;35967;50.718;7.050;2023-09-18T20:18:46;3.83;;;0.60;;
50086;SDS011;35967;50.718;7.050;2023-09-18T20:28:51;7.40;;;1.10;;
50086;SDS011;35967;50.718;7.050;2023-09-18T20:38:56;4.80;;;0.73;;
50086;SDS011;35967;50.718;7.050;2023-09-18T20:48:59;2.20;;;0.50;;
50086;SDS011;35967;50.718;7.050;2023-09-18T20:59:08;2.13;;;0.60;;
50086;SDS011;35967;50.718;7.050;2023-09-18T21:09:13;1.30;;;0.53;;
50086;SDS011;35967;50.718;7.050;2023-09-18T21:19:18;2.77;;;0.80;;
50086;SDS011;35967;50.718;7.050;2023-09-18T21:29:22;1.80;;;0.90;;
50086;SDS011;35967;50.718;7.050;2023-09-18T21:39:29;2.97;;;0.70;;
50086;SDS011;35967;50.718;7.050;2023-09-18T21:49:37;2.97;;;1.20;;
50086;SDS011;35967;50.718;7.050;2023-09-18T21:59:46;2.07;;;0.73;;
50086;SDS011;35967;50.718;7.050;2023-09-18T22:09:49;2.13;;;0.77;;
50086;SDS011;35967;50.718;7.050;2023-09-18T22:19:55;1.90;;;0.90;;
50086;SDS011;35967;50.718;7.050;2023-09-18T22:29:59;5.40;;;0.77;;
50086;SDS011;35967;50.718;7.050;2023-09-18T23:00:50;3.67;;;0.70;;
50086;SDS011;35967;50.718;7.050;2023-09-18T23:10:54;3.40;;;0.67;;
50086;SDS011;35967;50.718;7.050;2023-09-18T23:21:02;4.10;;;0.70;;
50086;SDS011;35967;50.718;7.050;2023-09-18T23:31:06;3.80;;;0.73;;
50086;SDS011;35967;50.718;7.050;2023-09-18T23:41:11;3.07;;;0.63;;
50086;SDS011;35967;50.718;7.050;2023-09-18T23:51:16;4.70;;;0.70;;
